createdAt,value
2023-07-18T00:01:41.018Z,24.04
2023-07-18T00:04:08.583Z,24.09
2023-07-18T00:06:38.522Z,24.02
2023-07-18T00:09:05.500Z,24.04
2023-07-18T00:11:32.275Z,23.96
2023-07-18T00:13:58.946Z,23.93
2023-07-18T00:16:25.641Z,24.00
2023-07-18T00:18:52.319Z,24.02
2023-07-18T00:21:19.200Z,24.04
2023-07-18T00:23:46.383Z,24.04
2023-07-18T00:26:12.988Z,23.99
2023-07-18T00:28:40.192Z,23.96
2023-07-18T00:31:06.900Z,24.03
2023-07-18T00:33:33.540Z,23.98
2023-07-18T00:36:00.177Z,23.98
2023-07-18T00:38:26.793Z,23.83
2023-07-18T00:40:54.193Z,23.89
2023-07-18T00:43:20.838Z,23.89
2023-07-18T00:45:49.421Z,23.95
2023-07-18T00:48:16.186Z,23.93
2023-07-18T00:50:42.806Z,23.88
2023-07-18T00:53:09.753Z,23.85
2023-07-18T00:55:36.330Z,23.91
2023-07-18T00:58:03.482Z,23.88
2023-07-18T01:00:30.121Z,23.86
2023-07-18T01:02:56.850Z,23.90
2023-07-18T01:05:23.735Z,23.88
2023-07-18T01:07:51.663Z,23.85
2023-07-18T01:10:27.116Z,23.92
2023-07-18T01:12:58.410Z,23.91
2023-07-18T01:15:34.586Z,23.89
2023-07-18T01:18:07.636Z,23.89
2023-07-18T01:20:34.459Z,23.84
2023-07-18T01:23:04.797Z,23.89
2023-07-18T01:25:32.289Z,23.81
2023-07-18T01:28:00.799Z,23.82
2023-07-18T01:30:28.448Z,23.88
2023-07-18T01:32:55.494Z,23.80
2023-07-18T01:35:27.260Z,23.80
2023-07-18T01:37:55.097Z,23.80
2023-07-18T01:40:22.811Z,23.77
2023-07-18T01:42:53.195Z,23.80
2023-07-18T01:45:21.155Z,23.74
2023-07-18T01:47:50.551Z,23.78
2023-07-18T01:50:17.628Z,23.75
2023-07-18T01:52:44.471Z,23.75
2023-07-18T01:55:11.203Z,23.71
2023-07-18T01:57:40.406Z,23.75
2023-07-18T02:00:12.461Z,23.71
2023-07-18T02:02:42.303Z,23.74
2023-07-18T02:05:09.530Z,23.73
2023-07-18T02:07:37.543Z,23.72
2023-07-18T02:10:04.385Z,23.71
2023-07-18T02:12:31.049Z,23.68
2023-07-18T02:14:57.663Z,23.66
2023-07-18T02:17:24.368Z,23.67
2023-07-18T02:19:51.010Z,23.63
2023-07-18T02:22:20.499Z,23.64
2023-07-18T02:24:49.591Z,23.61
2023-07-18T02:27:16.301Z,23.69
2023-07-18T02:29:42.903Z,23.61
2023-07-18T02:32:09.643Z,23.61
2023-07-18T02:34:36.328Z,23.63
2023-07-18T02:37:02.941Z,23.60
2023-07-18T02:39:33.677Z,23.62
2023-07-18T02:42:00.310Z,23.62
2023-07-18T02:44:27.015Z,23.63
2023-07-18T02:46:54.554Z,23.59
2023-07-18T02:49:21.239Z,23.61
2023-07-18T02:51:47.849Z,23.61
2023-07-18T02:54:14.442Z,23.56
2023-07-18T02:56:41.046Z,23.52
2023-07-18T02:59:07.631Z,23.57
2023-07-18T03:01:35.366Z,23.61
2023-07-18T03:04:02.232Z,23.62
2023-07-18T03:06:30.548Z,23.53
2023-07-18T03:08:58.661Z,23.55
2023-07-18T03:11:26.762Z,23.56
2023-07-18T03:13:53.920Z,23.52
2023-07-18T03:16:20.547Z,23.47
2023-07-18T03:18:47.188Z,23.50
2023-07-18T03:21:14.359Z,23.51
2023-07-18T03:23:41.502Z,23.53
2023-07-18T03:26:08.094Z,23.44
2023-07-18T03:28:34.689Z,23.47
2023-07-18T03:31:01.657Z,23.45
2023-07-18T03:33:28.262Z,23.47
2023-07-18T03:35:55.031Z,23.49
2023-07-18T03:38:21.660Z,23.45
2023-07-18T03:40:48.724Z,23.51
2023-07-18T03:43:15.315Z,23.44
2023-07-18T03:45:41.996Z,23.46
2023-07-18T03:48:08.699Z,23.49
2023-07-18T03:50:35.364Z,23.45
2023-07-18T03:53:01.951Z,23.45
2023-07-18T03:55:28.570Z,23.42
2023-07-18T03:57:55.164Z,23.34
2023-07-18T04:00:22.487Z,23.35
2023-07-18T04:02:50.086Z,23.26
2023-07-18T04:05:18.753Z,23.28
2023-07-18T04:07:48.027Z,23.34
2023-07-18T04:10:14.698Z,23.36
2023-07-18T04:12:41.999Z,23.42
2023-07-18T04:15:09.033Z,23.42
2023-07-18T04:17:36.041Z,23.49
2023-07-18T04:20:04.939Z,23.37
2023-07-18T04:22:31.627Z,23.36
2023-07-18T04:24:58.411Z,23.31
2023-07-18T04:27:27.595Z,23.31
2023-07-18T04:29:55.054Z,23.31
2023-07-18T04:32:21.845Z,23.37
2023-07-18T04:34:49.580Z,23.29
2023-07-18T04:37:16.793Z,23.22
2023-07-18T04:39:43.399Z,23.25
2023-07-18T04:42:10.059Z,23.28
2023-07-18T04:44:40.571Z,23.30
2023-07-18T04:47:09.752Z,23.28
2023-07-18T04:49:36.613Z,23.27
2023-07-18T04:52:03.393Z,23.20
2023-07-18T04:54:29.990Z,23.29
2023-07-18T04:56:56.647Z,23.29
2023-07-18T04:59:24.552Z,23.29
2023-07-18T05:01:55.232Z,23.24
2023-07-18T05:04:22.027Z,23.30
2023-07-18T05:06:52.489Z,23.33
2023-07-18T05:09:21.547Z,23.26
2023-07-18T05:11:48.862Z,23.28
2023-07-18T05:14:15.479Z,23.22
2023-07-18T05:16:42.120Z,23.21
2023-07-18T05:19:08.717Z,23.16
2023-07-18T05:21:35.436Z,23.19
2023-07-18T05:24:02.129Z,23.28
2023-07-18T05:26:28.809Z,23.19
2023-07-18T05:28:55.420Z,23.18
2023-07-18T05:31:22.713Z,23.16
2023-07-18T05:33:49.896Z,23.15
2023-07-18T05:36:17.562Z,23.17
2023-07-18T05:38:46.313Z,23.22
2023-07-18T05:41:12.997Z,23.21
2023-07-18T05:43:39.596Z,23.21
2023-07-18T05:46:06.304Z,23.21
2023-07-18T05:48:33.005Z,23.18
2023-07-18T05:51:01.476Z,23.15
2023-07-18T05:53:28.179Z,23.19
2023-07-18T05:55:54.863Z,23.25
2023-07-18T05:58:21.466Z,23.20
2023-07-18T06:00:48.189Z,23.28
2023-07-18T06:03:14.998Z,23.21
2023-07-18T06:05:42.440Z,23.21
2023-07-18T06:08:11.704Z,23.19
2023-07-18T06:10:38.360Z,23.09
2023-07-18T06:13:04.965Z,23.07
2023-07-18T06:15:31.761Z,23.07
2023-07-18T06:17:58.469Z,23.17
2023-07-18T06:20:25.161Z,23.12
2023-07-18T06:22:51.833Z,23.12
2023-07-18T06:25:18.594Z,23.10
2023-07-18T06:27:45.307Z,23.12
2023-07-18T06:30:12.231Z,23.09
2023-07-18T06:32:40.565Z,23.12
2023-07-18T06:35:22.985Z,23.15
2023-07-18T06:37:50.056Z,23.14
2023-07-18T06:40:16.828Z,23.09
2023-07-18T06:42:43.723Z,23.19
2023-07-18T06:45:10.691Z,23.15
2023-07-18T06:47:37.336Z,23.22
2023-07-18T06:50:04.143Z,23.20
2023-07-18T06:52:32.511Z,23.17
2023-07-18T06:55:00.601Z,23.25
2023-07-18T06:57:27.286Z,23.08
2023-07-18T06:59:54.642Z,23.10
2023-07-18T07:02:21.290Z,23.15
2023-07-18T07:04:47.968Z,23.09
2023-07-18T07:07:19.407Z,23.13
2023-07-18T07:09:46.081Z,23.21
2023-07-18T07:12:22.260Z,23.13
2023-07-18T07:14:51.973Z,23.19
2023-07-18T07:17:18.662Z,23.04
2023-07-18T07:19:45.739Z,22.99
2023-07-18T07:22:14.158Z,22.97
2023-07-18T07:24:40.806Z,23.03
2023-07-18T07:27:08.370Z,23.15
2023-07-18T07:29:35.657Z,23.06
2023-07-18T07:32:11.460Z,23.12
2023-07-18T07:34:39.935Z,22.94
2023-07-18T07:37:09.952Z,23.03
2023-07-18T07:39:36.689Z,23.14
2023-07-18T07:42:03.378Z,22.98
2023-07-18T07:44:30.139Z,23.13
2023-07-18T07:46:58.576Z,23.13
2023-07-18T07:49:25.418Z,23.27
2023-07-18T07:51:52.057Z,23.36
2023-07-18T07:54:18.649Z,23.26
2023-07-18T07:56:45.387Z,23.36
2023-07-18T07:59:12.353Z,23.41
2023-07-18T08:01:39.806Z,23.40
2023-07-18T08:04:06.886Z,23.43
2023-07-18T08:06:34.996Z,23.46
2023-07-18T08:09:03.617Z,23.43
2023-07-18T08:11:30.337Z,23.51
2023-07-18T08:13:57.442Z,23.47
2023-07-18T08:16:24.184Z,23.51
2023-07-18T08:18:50.825Z,23.51
2023-07-18T08:21:20.145Z,23.57
2023-07-18T08:23:47.171Z,23.62
2023-07-18T08:26:14.325Z,23.46
2023-07-18T08:28:41.123Z,23.54
2023-07-18T08:31:09.442Z,23.51
2023-07-18T08:33:36.054Z,23.53
2023-07-18T08:36:02.644Z,23.61
2023-07-18T08:38:29.229Z,23.57
2023-07-18T08:40:56.855Z,23.60
2023-07-18T08:43:23.718Z,23.58
2023-07-18T08:45:51.591Z,23.57
2023-07-18T08:48:18.294Z,23.56
2023-07-18T08:50:45.827Z,23.64
2023-07-18T08:53:12.467Z,23.63
2023-07-18T08:55:40.785Z,23.70
2023-07-18T08:58:07.453Z,23.78
2023-07-18T09:00:34.787Z,23.72
2023-07-18T09:03:01.476Z,23.71
2023-07-18T09:05:29.779Z,23.77
2023-07-18T09:07:57.731Z,23.70
2023-07-18T09:10:25.013Z,23.78
2023-07-18T09:12:51.623Z,23.80
2023-07-18T09:15:20.492Z,23.88
2023-07-18T09:17:57.933Z,23.85
2023-07-18T09:20:26.999Z,23.91
2023-07-18T09:22:58.029Z,23.98
2023-07-18T09:25:25.829Z,23.96
2023-07-18T09:27:53.987Z,24.00
2023-07-18T09:30:30.605Z,24.03
2023-07-18T09:32:57.240Z,24.07
2023-07-18T09:35:27.722Z,24.10
2023-07-18T09:37:54.339Z,24.13
2023-07-18T09:40:20.963Z,24.14
2023-07-18T09:42:49.244Z,24.23
2023-07-18T09:45:16.947Z,24.27
2023-07-18T09:47:44.800Z,24.29
2023-07-18T09:50:15.414Z,24.33
2023-07-18T09:52:52.779Z,24.37
2023-07-18T09:55:23.262Z,24.38
2023-07-18T09:57:53.768Z,24.39
2023-07-18T10:00:21.174Z,24.36
2023-07-18T10:02:48.645Z,24.37
2023-07-18T10:05:16.418Z,24.39
2023-07-18T10:07:43.352Z,24.38
2023-07-18T10:10:11.415Z,24.35
2023-07-18T10:12:39.113Z,24.39
2023-07-18T10:15:09.140Z,24.38
2023-07-18T10:17:40.755Z,24.35
2023-07-18T10:20:16.700Z,24.40
2023-07-18T10:22:49.444Z,24.44
2023-07-18T10:25:18.569Z,24.42
2023-07-18T10:27:46.413Z,24.38
2023-07-18T10:30:16.924Z,24.41
2023-07-18T10:32:57.643Z,24.47
2023-07-18T10:35:26.775Z,24.51
2023-07-18T10:37:58.376Z,24.54
2023-07-18T10:40:40.197Z,24.49
2023-07-18T10:43:08.024Z,24.53
2023-07-18T10:45:42.214Z,24.57
2023-07-18T10:48:19.352Z,24.58
2023-07-18T10:50:47.465Z,24.64
2023-07-18T10:53:19.703Z,24.61
2023-07-18T10:55:47.683Z,24.66
2023-07-18T10:58:20.923Z,24.65
2023-07-18T11:00:50.520Z,24.62
2023-07-18T11:03:28.708Z,24.62
2023-07-18T11:05:57.732Z,24.59
2023-07-18T11:08:29.010Z,24.67
2023-07-18T11:11:02.369Z,24.68
2023-07-18T11:13:32.450Z,24.67
2023-07-18T11:16:01.408Z,24.73
2023-07-18T11:18:32.509Z,24.76
2023-07-18T11:21:03.162Z,24.78
2023-07-18T11:23:29.858Z,24.78
2023-07-18T11:25:59.455Z,24.75
2023-07-18T11:28:30.518Z,24.79
2023-07-18T11:30:57.170Z,24.78
2023-07-18T11:33:28.973Z,24.73
2023-07-18T11:35:55.579Z,24.71
2023-07-18T11:38:25.836Z,24.70
2023-07-18T11:40:53.312Z,24.78
2023-07-18T11:43:20.753Z,24.76
2023-07-18T11:45:48.104Z,24.82
2023-07-18T11:48:15.090Z,24.73
2023-07-18T11:50:46.905Z,24.77
2023-07-18T11:53:14.745Z,24.76
2023-07-18T11:55:41.329Z,24.81
2023-07-18T11:58:09.293Z,24.80
2023-07-18T12:00:36.912Z,24.79
2023-07-18T12:03:04.762Z,24.84
2023-07-18T12:05:31.469Z,24.80
2023-07-18T12:07:58.305Z,24.78
2023-07-18T12:10:26.332Z,24.78
2023-07-18T12:12:53.165Z,24.79
2023-07-18T12:15:19.767Z,24.72
2023-07-18T12:17:47.572Z,24.68
2023-07-18T12:20:14.312Z,24.68
2023-07-18T12:22:41.032Z,24.69
2023-07-18T12:25:08.112Z,24.74
2023-07-18T12:27:36.091Z,24.72
2023-07-18T12:30:02.806Z,24.69
2023-07-18T12:32:32.014Z,24.69
2023-07-18T12:34:59.183Z,24.68
2023-07-18T12:37:28.553Z,24.70
2023-07-18T12:39:59.918Z,24.72
2023-07-18T12:42:29.383Z,24.72
2023-07-18T12:44:55.989Z,24.73
2023-07-18T12:47:22.686Z,24.68
2023-07-18T12:52:18.818Z,24.65
2023-07-18T12:54:45.434Z,24.59
2023-07-18T12:57:12.101Z,24.57
2023-07-18T12:59:38.743Z,24.61
2023-07-18T13:02:08.650Z,24.66
2023-07-18T13:04:35.306Z,24.62
2023-07-18T13:07:03.831Z,24.66
2023-07-18T13:09:30.571Z,24.63
2023-07-18T13:11:57.258Z,24.65
2023-07-18T13:14:23.945Z,24.58
2023-07-18T13:16:50.704Z,24.60
2023-07-18T13:19:19.139Z,24.60
2023-07-18T13:21:45.805Z,24.60
2023-07-18T13:24:12.464Z,24.61
2023-07-18T13:26:39.176Z,24.52
2023-07-18T13:29:07.271Z,24.55
2023-07-18T13:31:35.941Z,24.62
2023-07-18T13:34:05.762Z,24.58
2023-07-18T13:36:32.962Z,24.61
2023-07-18T13:38:59.988Z,24.65
2023-07-18T13:41:26.613Z,24.68
2023-07-18T13:43:53.860Z,24.59
2023-07-18T13:46:20.828Z,24.60
2023-07-18T13:48:47.610Z,24.68
2023-07-18T13:51:14.269Z,24.66
2023-07-18T13:53:40.910Z,24.70
2023-07-18T13:56:07.640Z,24.69
2023-07-18T13:58:34.370Z,24.72
2023-07-18T14:01:01.003Z,24.72
2023-07-18T14:03:35.416Z,24.74
2023-07-18T14:06:04.887Z,24.71
2023-07-18T14:08:33.055Z,24.75
2023-07-18T14:10:59.734Z,24.71
2023-07-18T14:13:27.185Z,24.72
2023-07-18T14:15:53.815Z,24.73
2023-07-18T14:18:20.884Z,24.74
2023-07-18T14:20:47.489Z,24.73
2023-07-18T14:23:14.153Z,24.75
2023-07-18T14:25:40.868Z,24.73
2023-07-18T14:28:07.632Z,24.78
2023-07-18T14:30:34.230Z,24.78
2023-07-18T14:33:02.896Z,24.86
2023-07-18T14:35:32.242Z,24.85
2023-07-18T14:38:01.367Z,24.78
2023-07-18T14:40:28.019Z,24.83
2023-07-18T14:42:55.692Z,24.82
2023-07-18T14:45:22.293Z,24.83
2023-07-18T14:47:49.004Z,24.81
2023-07-18T14:50:16.580Z,24.84
2023-07-18T14:52:43.330Z,24.90
2023-07-18T14:55:10.014Z,24.90
2023-07-18T14:57:36.633Z,24.92
2023-07-18T15:00:06.182Z,24.94
2023-07-18T15:02:32.948Z,24.92
2023-07-18T15:04:59.568Z,24.96
2023-07-18T15:07:27.797Z,24.93
2023-07-18T15:09:54.445Z,24.97
2023-07-18T15:12:21.091Z,25.02
2023-07-18T15:14:47.737Z,25.00
2023-07-18T15:17:14.372Z,25.02
2023-07-18T15:19:41.789Z,25.00
2023-07-18T15:22:08.386Z,25.02
2023-07-18T15:24:36.218Z,25.03
2023-07-18T15:27:03.506Z,25.03
2023-07-18T15:29:30.294Z,25.07
2023-07-18T15:31:56.896Z,25.08
2023-07-18T15:34:23.515Z,25.11
2023-07-18T15:36:50.711Z,25.13
2023-07-18T15:39:17.357Z,25.09
2023-07-18T15:41:43.970Z,25.17
2023-07-18T15:44:10.612Z,25.18
2023-07-18T15:46:38.308Z,25.23
2023-07-18T15:49:06.217Z,25.20
2023-07-18T15:51:32.924Z,25.18
2023-07-18T15:53:59.634Z,25.26
2023-07-18T15:56:26.250Z,25.21
2023-07-18T15:58:53.611Z,25.24
2023-07-18T16:01:20.419Z,25.21
2023-07-18T16:03:47.357Z,25.20
2023-07-18T16:06:16.016Z,25.24
2023-07-18T16:08:42.673Z,25.29
2023-07-18T16:11:09.308Z,25.33
2023-07-18T16:13:36.457Z,25.30
2023-07-18T16:16:05.807Z,25.32
2023-07-18T16:18:33.006Z,25.32
2023-07-18T16:20:59.609Z,25.37
2023-07-18T16:23:26.294Z,25.36
2023-07-18T16:25:52.937Z,25.40
2023-07-18T16:28:19.700Z,25.40
2023-07-18T16:30:47.002Z,25.42
2023-07-18T16:33:13.781Z,25.36
2023-07-18T16:35:40.515Z,25.41
2023-07-18T16:38:07.513Z,25.44
2023-07-18T16:40:34.258Z,25.40
2023-07-18T16:43:00.930Z,25.41
2023-07-18T16:45:27.528Z,25.41
2023-07-18T16:47:54.188Z,25.42
2023-07-18T16:50:23.899Z,25.44
2023-07-18T16:52:50.510Z,25.46
2023-07-18T16:55:17.150Z,25.43
2023-07-18T16:57:43.739Z,25.42
2023-07-18T17:00:10.942Z,25.41
2023-07-18T17:02:37.548Z,25.42
2023-07-18T17:05:04.417Z,25.42
2023-07-18T17:07:32.135Z,25.43
2023-07-18T17:10:00.561Z,25.44
2023-07-18T17:12:27.213Z,25.48
2023-07-18T17:14:53.804Z,25.48
2023-07-18T17:17:23.226Z,25.46
2023-07-18T17:20:04.634Z,25.45
2023-07-18T17:22:34.268Z,25.50
2023-07-18T17:25:00.900Z,25.51
2023-07-18T17:27:29.022Z,25.48
2023-07-18T17:29:55.665Z,25.49
2023-07-18T17:32:22.454Z,25.46
2023-07-18T17:34:49.068Z,25.45
2023-07-18T17:37:16.304Z,25.46
2023-07-18T17:39:43.437Z,25.47
2023-07-18T17:42:11.022Z,25.47
2023-07-18T17:44:37.694Z,25.43
2023-07-18T17:47:04.543Z,25.47
2023-07-18T17:49:31.297Z,25.42
2023-07-18T17:51:57.886Z,25.40
2023-07-18T17:54:25.902Z,25.37
2023-07-18T17:56:52.563Z,25.37
2023-07-18T17:59:19.743Z,25.38
2023-07-18T18:01:47.958Z,25.41
2023-07-18T18:04:14.560Z,25.40
2023-07-18T18:06:43.762Z,25.38
2023-07-18T18:09:11.212Z,25.39
2023-07-18T18:11:37.790Z,25.39
2023-07-18T18:14:04.396Z,25.38
2023-07-18T18:16:31.021Z,25.36
2023-07-18T18:18:58.063Z,25.36
2023-07-18T18:21:26.801Z,25.38
2023-07-18T18:23:53.522Z,25.39
2023-07-18T18:26:21.207Z,25.39
2023-07-18T18:28:48.021Z,25.35
2023-07-18T18:31:14.823Z,25.34
2023-07-18T18:33:41.485Z,25.35
2023-07-18T18:36:08.072Z,25.35
2023-07-18T18:38:34.662Z,25.32
2023-07-18T18:41:04.233Z,25.30
2023-07-18T18:43:31.424Z,25.30
2023-07-18T18:45:58.182Z,25.35
2023-07-18T18:48:24.880Z,25.32
2023-07-18T18:50:53.061Z,25.41
2023-07-18T18:53:21.184Z,25.35
2023-07-18T18:55:47.798Z,25.34
2023-07-18T18:58:14.695Z,25.34
2023-07-18T19:00:41.356Z,25.31
2023-07-18T19:03:08.094Z,25.35
2023-07-18T19:05:37.686Z,25.31
2023-07-18T19:08:04.468Z,25.33
2023-07-18T19:10:31.206Z,25.33
2023-07-18T19:12:57.834Z,25.32
2023-07-18T19:15:24.488Z,25.29
2023-07-18T19:17:51.134Z,25.29
2023-07-18T19:20:17.784Z,25.32
2023-07-18T19:22:44.465Z,25.31
2023-07-18T19:25:11.271Z,25.20
2023-07-18T19:27:38.178Z,25.18
2023-07-18T19:30:05.950Z,25.22
2023-07-18T19:32:32.626Z,25.13
2023-07-18T19:34:59.273Z,25.11
2023-07-18T19:37:25.897Z,25.18
2023-07-18T19:39:53.122Z,25.22
2023-07-18T19:42:19.768Z,25.21
2023-07-18T19:44:48.463Z,25.15
2023-07-18T19:47:15.413Z,25.11
2023-07-18T19:49:42.216Z,25.09
2023-07-18T19:52:08.850Z,25.09
2023-07-18T19:54:35.606Z,25.11
2023-07-18T19:57:02.241Z,25.09
2023-07-18T19:59:31.089Z,25.04
2023-07-18T20:01:57.773Z,25.07
2023-07-18T20:04:24.626Z,25.04
2023-07-18T20:06:52.122Z,24.97
2023-07-18T20:09:18.716Z,25.04
2023-07-18T20:11:45.376Z,24.97
2023-07-18T20:14:11.968Z,25.06
2023-07-18T20:16:38.851Z,25.03
2023-07-18T20:19:05.476Z,25.02
2023-07-18T20:21:32.078Z,25.05
2023-07-18T20:24:00.137Z,24.92
2023-07-18T20:26:27.038Z,24.91
2023-07-18T20:28:53.655Z,24.96
2023-07-18T20:31:20.907Z,24.87
2023-07-18T20:33:48.354Z,24.86
2023-07-18T20:36:15.168Z,24.93
2023-07-18T20:38:43.928Z,24.94
2023-07-18T20:41:10.664Z,24.97
2023-07-18T20:43:37.270Z,24.98
2023-07-18T20:46:04.947Z,24.93
2023-07-18T20:48:34.077Z,25.02
2023-07-18T20:51:00.768Z,24.98
2023-07-18T20:53:28.979Z,24.93
2023-07-18T20:55:56.339Z,24.95
2023-07-18T20:58:23.943Z,24.92
2023-07-18T21:00:50.568Z,24.83
2023-07-18T21:03:17.389Z,24.87
2023-07-18T21:05:45.553Z,24.85
2023-07-18T21:08:13.614Z,24.77
2023-07-18T21:10:40.261Z,24.77
2023-07-18T21:13:09.215Z,24.70
2023-07-18T21:15:36.093Z,24.67
2023-07-18T21:18:04.347Z,24.65
2023-07-18T21:20:31.165Z,24.58
2023-07-18T21:22:57.869Z,24.63
2023-07-18T21:25:24.514Z,24.73
2023-07-18T21:27:51.233Z,24.67
2023-07-18T21:30:17.868Z,24.59
2023-07-18T21:32:44.970Z,24.53
2023-07-18T21:35:11.710Z,24.51
2023-07-18T21:37:38.327Z,24.46
2023-07-18T21:40:07.087Z,24.49
2023-07-18T21:42:33.716Z,24.51
2023-07-18T21:45:00.340Z,24.52
2023-07-18T21:47:27.971Z,24.52
2023-07-18T21:49:54.616Z,24.55
2023-07-18T21:52:21.246Z,24.51
2023-07-18T21:54:47.870Z,24.51
2023-07-18T21:57:17.025Z,24.46
2023-07-18T21:59:44.221Z,24.49
2023-07-18T22:02:13.836Z,24.44
2023-07-18T22:04:40.694Z,24.42
2023-07-18T22:07:11.331Z,24.37
2023-07-18T22:09:37.977Z,24.39
2023-07-18T22:12:06.932Z,24.38
2023-07-18T22:14:33.672Z,24.35
2023-07-18T22:17:00.263Z,24.33
2023-07-18T22:19:26.871Z,24.33
2023-07-18T22:21:53.558Z,24.36
2023-07-18T22:24:20.750Z,24.34
2023-07-18T22:26:47.359Z,24.28
2023-07-18T22:29:13.938Z,24.26
2023-07-18T22:31:41.027Z,24.29
2023-07-18T22:34:09.211Z,24.31
2023-07-18T22:36:35.848Z,24.30
2023-07-18T22:39:02.554Z,24.31
2023-07-18T22:41:29.132Z,24.24
2023-07-18T22:43:57.562Z,24.25
2023-07-18T22:46:24.377Z,24.30
2023-07-18T22:48:51.029Z,24.26
2023-07-18T22:51:17.705Z,24.21
2023-07-18T22:53:44.413Z,24.20
2023-07-18T22:56:12.707Z,24.16
2023-07-18T22:58:39.343Z,24.15
2023-07-18T23:01:07.074Z,24.17
2023-07-18T23:03:34.584Z,24.16
2023-07-18T23:06:01.833Z,24.13
2023-07-18T23:08:28.569Z,24.13
2023-07-18T23:10:55.253Z,24.07
2023-07-18T23:13:21.857Z,24.05
2023-07-18T23:15:48.532Z,24.07
2023-07-18T23:18:15.176Z,24.11
2023-07-18T23:20:42.037Z,24.08
2023-07-18T23:23:08.833Z,24.10
2023-07-18T23:25:35.527Z,24.09
2023-07-18T23:28:02.147Z,24.08
2023-07-18T23:30:29.085Z,24.04
2023-07-18T23:32:55.789Z,24.02
2023-07-18T23:35:25.830Z,24.04
2023-07-18T23:37:53.134Z,23.98
2023-07-18T23:40:19.709Z,24.02
2023-07-18T23:42:46.303Z,23.94
2023-07-18T23:45:12.897Z,24.01
2023-07-18T23:47:39.498Z,24.02
2023-07-18T23:50:06.592Z,24.01
2023-07-18T23:52:33.339Z,24.02
2023-07-18T23:54:59.944Z,24.02
2023-07-18T23:57:26.648Z,23.97
2023-07-18T23:59:53.261Z,24.03
